sensor_id;sensor_type;location;lat;lon;timestamp;P1;durP1;ratioP1;P2;durP2;ratioP2
56537;SDS011;42435;53.292;6.000;2023-11-21T00:01:28;9.95;;;2.67;;
56537;SDS011;42435;53.292;6.000;2023-11-21T00:03:53;9.02;;;3.15;;
56537;SDS011;42435;53.292;6.000;2023-11-21T00:06:20;7.07;;;2.42;;
56537;SDS011;42435;53.292;6.000;2023-11-21T00:08:46;10.57;;;3.42;;
56537;SDS011;42435;53.292;6.000;2023-11-21T00:11:11;10.13;;;3.28;;
56537;SDS011;42435;53.292;6.000;2023-11-21T00:13:37;6.60;;;3.00;;
56537;SDS011;42435;53.292;6.000;2023-11-21T00:16:02;8.85;;;2.88;;
56537;SDS011;42435;53.292;6.000;2023-11-21T00:18:29;7.03;;;2.85;;
56537;SDS011;42435;53.292;6.000;2023-11-21T00:20:55;10.23;;;3.03;;
56537;SDS011;42435;53.292;6.000;2023-11-21T00:23:20;12.50;;;3.17;;
56537;SDS011;42435;53.292;6.000;2023-11-21T00:25:46;8.07;;;3.00;;
56537;SDS011;42435;53.292;6.000;2023-11-21T00:28:14;5.80;;;2.78;;
56537;SDS011;42435;53.292;6.000;2023-11-21T00:30:40;8.85;;;2.95;;
56537;SDS011;42435;53.292;6.000;2023-11-21T00:33:06;9.63;;;2.92;;
56537;SDS011;42435;53.292;6.000;2023-11-21T00:35:32;10.57;;;3.22;;
56537;SDS011;42435;53.292;6.000;2023-11-21T00:37:58;10.55;;;3.10;;
56537;SDS011;42435;53.292;6.000;2023-11-21T00:40:23;8.23;;;2.88;;
56537;SDS011;42435;53.292;6.000;2023-11-21T00:42:49;9.77;;;3.22;;
56537;SDS011;42435;53.292;6.000;2023-11-21T00:45:15;5.63;;;2.60;;
56537;SDS011;42435;53.292;6.000;2023-11-21T00:47:41;6.22;;;3.03;;
56537;SDS011;42435;53.292;6.000;2023-11-21T00:50:07;10.93;;;3.95;;
56537;SDS011;42435;53.292;6.000;2023-11-21T00:52:37;12.30;;;4.53;;
56537;SDS011;42435;53.292;6.000;2023-11-21T00:55:03;15.85;;;5.43;;
56537;SDS011;42435;53.292;6.000;2023-11-21T00:57:30;14.80;;;5.03;;
56537;SDS011;42435;53.292;6.000;2023-11-21T00:59:56;18.58;;;5.53;;
56537;SDS011;42435;53.292;6.000;2023-11-21T01:02:21;18.55;;;6.20;;
56537;SDS011;42435;53.292;6.000;2023-11-21T01:04:50;20.25;;;7.00;;
56537;SDS011;42435;53.292;6.000;2023-11-21T01:07:15;17.33;;;6.97;;
56537;SDS011;42435;53.292;6.000;2023-11-21T01:09:41;17.50;;;6.78;;
56537;SDS011;42435;53.292;6.000;2023-11-21T01:12:07;20.98;;;7.85;;
56537;SDS011;42435;53.292;6.000;2023-11-21T01:14:33;19.23;;;8.13;;
56537;SDS011;42435;53.292;6.000;2023-11-21T01:16:58;20.33;;;7.90;;
56537;SDS011;42435;53.292;6.000;2023-11-21T01:19:27;26.10;;;8.57;;
56537;SDS011;42435;53.292;6.000;2023-11-21T01:21:53;23.95;;;7.97;;
56537;SDS011;42435;53.292;6.000;2023-11-21T01:24:19;21.15;;;7.20;;
56537;SDS011;42435;53.292;6.000;2023-11-21T01:26:45;20.33;;;8.27;;
56537;SDS011;42435;53.292;6.000;2023-11-21T01:29:11;18.35;;;7.05;;
56537;SDS011;42435;53.292;6.000;2023-11-21T01:31:38;19.23;;;6.53;;
56537;SDS011;42435;53.292;6.000;2023-11-21T01:34:04;18.42;;;6.18;;
56537;SDS011;42435;53.292;6.000;2023-11-21T01:36:33;15.77;;;5.80;;
56537;SDS011;42435;53.292;6.000;2023-11-21T01:38:59;14.23;;;4.93;;
56537;SDS011;42435;53.292;6.000;2023-11-21T01:41:26;13.02;;;5.10;;
56537;SDS011;42435;53.292;6.000;2023-11-21T01:43:52;13.48;;;4.50;;
56537;SDS011;42435;53.292;6.000;2023-11-21T01:46:19;14.65;;;5.32;;
56537;SDS011;42435;53.292;6.000;2023-11-21T01:48:46;8.70;;;4.63;;
56537;SDS011;42435;53.292;6.000;2023-11-21T01:51:13;8.65;;;3.95;;
56537;SDS011;42435;53.292;6.000;2023-11-21T01:53:39;9.73;;;4.60;;
56537;SDS011;42435;53.292;6.000;2023-11-21T01:56:08;9.48;;;4.43;;
56537;SDS011;42435;53.292;6.000;2023-11-21T01:58:35;9.27;;;4.40;;
56537;SDS011;42435;53.292;6.000;2023-11-21T02:01:00;6.95;;;4.10;;
56537;SDS011;42435;53.292;6.000;2023-11-21T02:03:26;7.97;;;4.10;;
56537;SDS011;42435;53.292;6.000;2023-11-21T02:05:52;8.45;;;4.00;;
56537;SDS011;42435;53.292;6.000;2023-11-21T02:08:18;6.93;;;3.80;;
56537;SDS011;42435;53.292;6.000;2023-11-21T02:10:44;8.50;;;3.90;;
56537;SDS011;42435;53.292;6.000;2023-11-21T02:13:10;5.03;;;2.60;;
56537;SDS011;42435;53.292;6.000;2023-11-21T02:15:36;5.30;;;2.47;;
56537;SDS011;42435;53.292;6.000;2023-11-21T02:18:03;7.10;;;3.20;;
56537;SDS011;42435;53.292;6.000;2023-11-21T02:20:31;6.47;;;2.78;;
56537;SDS011;42435;53.292;6.000;2023-11-21T02:22:59;6.38;;;2.63;;
56537;SDS011;42435;53.292;6.000;2023-11-21T02:25:30;6.32;;;2.72;;
56537;SDS011;42435;53.292;6.000;2023-11-21T02:27:58;5.68;;;2.15;;
56537;SDS011;42435;53.292;6.000;2023-11-21T02:30:25;4.72;;;2.25;;
56537;SDS011;42435;53.292;6.000;2023-11-21T02:32:53;4.85;;;1.88;;
56537;SDS011;42435;53.292;6.000;2023-11-21T02:35:19;3.55;;;1.80;;
56537;SDS011;42435;53.292;6.000;2023-11-21T02:37:49;6.43;;;2.35;;
56537;SDS011;42435;53.292;6.000;2023-11-21T02:40:15;5.35;;;1.60;;
56537;SDS011;42435;53.292;6.000;2023-11-21T02:42:50;5.85;;;1.60;;
56537;SDS011;42435;53.292;6.000;2023-11-21T02:45:19;13.40;;;2.75;;
56537;SDS011;42435;53.292;6.000;2023-11-21T02:47:52;8.57;;;1.90;;
56537;SDS011;42435;53.292;6.000;2023-11-21T02:50:21;5.22;;;1.95;;
56537;SDS011;42435;53.292;6.000;2023-11-21T02:52:47;7.38;;;1.88;;
56537;SDS011;42435;53.292;6.000;2023-11-21T02:55:13;8.88;;;2.53;;
56537;SDS011;42435;53.292;6.000;2023-11-21T02:57:40;4.90;;;1.88;;
56537;SDS011;42435;53.292;6.000;2023-11-21T03:00:06;7.00;;;2.17;;
56537;SDS011;42435;53.292;6.000;2023-11-21T03:02:33;5.47;;;2.30;;
56537;SDS011;42435;53.292;6.000;2023-11-21T03:05:04;7.25;;;2.15;;
56537;SDS011;42435;53.292;6.000;2023-11-21T03:07:31;6.72;;;2.25;;
56537;SDS011;42435;53.292;6.000;2023-11-21T03:09:56;7.82;;;2.50;;
56537;SDS011;42435;53.292;6.000;2023-11-21T03:12:22;9.02;;;2.65;;
56537;SDS011;42435;53.292;6.000;2023-11-21T03:14:48;8.70;;;2.97;;
56537;SDS011;42435;53.292;6.000;2023-11-21T03:17:16;12.05;;;3.25;;
56537;SDS011;42435;53.292;6.000;2023-11-21T03:19:42;12.50;;;3.63;;
56537;SDS011;42435;53.292;6.000;2023-11-21T03:22:08;11.15;;;3.75;;
56537;SDS011;42435;53.292;6.000;2023-11-21T03:24:34;14.68;;;4.50;;
56537;SDS011;42435;53.292;6.000;2023-11-21T03:27:00;11.98;;;3.88;;
56537;SDS011;42435;53.292;6.000;2023-11-21T03:29:26;14.60;;;5.38;;
56537;SDS011;42435;53.292;6.000;2023-11-21T03:31:51;15.38;;;5.10;;
56537;SDS011;42435;53.292;6.000;2023-11-21T03:34:25;16.83;;;5.10;;
56537;SDS011;42435;53.292;6.000;2023-11-21T03:36:52;15.85;;;5.65;;
56537;SDS011;42435;53.292;6.000;2023-11-21T03:39:19;18.92;;;5.50;;
56537;SDS011;42435;53.292;6.000;2023-11-21T03:41:48;21.00;;;5.97;;
56537;SDS011;42435;53.292;6.000;2023-11-21T03:44:14;20.50;;;7.75;;
56537;SDS011;42435;53.292;6.000;2023-11-21T03:46:40;13.07;;;5.28;;
56537;SDS011;42435;53.292;6.000;2023-11-21T03:49:05;21.58;;;6.25;;
56537;SDS011;42435;53.292;6.000;2023-11-21T03:51:31;20.38;;;7.00;;
56537;SDS011;42435;53.292;6.000;2023-11-21T03:53:59;17.40;;;6.80;;
56537;SDS011;42435;53.292;6.000;2023-11-21T03:56:26;26.65;;;7.40;;
56537;SDS011;42435;53.292;6.000;2023-11-21T03:58:53;16.60;;;7.50;;
56537;SDS011;42435;53.292;6.000;2023-11-21T04:01:21;21.58;;;7.97;;
56537;SDS011;42435;53.292;6.000;2023-11-21T04:03:48;24.90;;;7.85;;
56537;SDS011;42435;53.292;6.000;2023-11-21T04:06:14;22.90;;;7.88;;
56537;SDS011;42435;53.292;6.000;2023-11-21T04:08:42;23.35;;;8.23;;
56537;SDS011;42435;53.292;6.000;2023-11-21T04:11:09;23.75;;;8.57;;
56537;SDS011;42435;53.292;6.000;2023-11-21T04:13:37;24.98;;;8.07;;
56537;SDS011;42435;53.292;6.000;2023-11-21T04:16:04;18.65;;;6.00;;
56537;SDS011;42435;53.292;6.000;2023-11-21T04:18:31;22.67;;;8.77;;
56537;SDS011;42435;53.292;6.000;2023-11-21T04:20:56;20.17;;;8.23;;
56537;SDS011;42435;53.292;6.000;2023-11-21T04:23:22;21.23;;;7.85;;
56537;SDS011;42435;53.292;6.000;2023-11-21T04:25:47;26.90;;;9.20;;
56537;SDS011;42435;53.292;6.000;2023-11-21T04:28:16;28.67;;;9.77;;
56537;SDS011;42435;53.292;6.000;2023-11-21T04:30:42;31.38;;;10.25;;
56537;SDS011;42435;53.292;6.000;2023-11-21T04:33:07;31.42;;;10.50;;
56537;SDS011;42435;53.292;6.000;2023-11-21T04:35:33;28.50;;;10.27;;
56537;SDS011;42435;53.292;6.000;2023-11-21T04:37:58;23.13;;;9.20;;
56537;SDS011;42435;53.292;6.000;2023-11-21T04:40:25;33.58;;;10.10;;
56537;SDS011;42435;53.292;6.000;2023-11-21T04:42:52;28.90;;;10.60;;
56537;SDS011;42435;53.292;6.000;2023-11-21T04:45:17;23.83;;;9.68;;
56537;SDS011;42435;53.292;6.000;2023-11-21T04:47:43;25.10;;;8.43;;
56537;SDS011;42435;53.292;6.000;2023-11-21T04:50:10;29.80;;;9.07;;
56537;SDS011;42435;53.292;6.000;2023-11-21T04:52:36;18.27;;;7.05;;
56537;SDS011;42435;53.292;6.000;2023-11-21T04:55:01;17.40;;;6.65;;
56537;SDS011;42435;53.292;6.000;2023-11-21T04:57:27;21.75;;;7.68;;
56537;SDS011;42435;53.292;6.000;2023-11-21T04:59:56;20.95;;;8.23;;
56537;SDS011;42435;53.292;6.000;2023-11-21T05:02:21;22.35;;;8.25;;
56537;SDS011;42435;53.292;6.000;2023-11-21T05:04:47;27.05;;;10.63;;
56537;SDS011;42435;53.292;6.000;2023-11-21T05:07:13;30.90;;;11.20;;
56537;SDS011;42435;53.292;6.000;2023-11-21T05:09:42;24.10;;;9.90;;
56537;SDS011;42435;53.292;6.000;2023-11-21T05:12:11;31.10;;;10.25;;
56537;SDS011;42435;53.292;6.000;2023-11-21T05:14:39;33.92;;;12.38;;
56537;SDS011;42435;53.292;6.000;2023-11-21T05:17:05;46.15;;;13.07;;
56537;SDS011;42435;53.292;6.000;2023-11-21T05:19:32;36.70;;;12.80;;
56537;SDS011;42435;53.292;6.000;2023-11-21T05:21:58;44.38;;;14.13;;
56537;SDS011;42435;53.292;6.000;2023-11-21T05:24:25;51.65;;;17.00;;
56537;SDS011;42435;53.292;6.000;2023-11-21T05:26:51;46.15;;;16.05;;
56537;SDS011;42435;53.292;6.000;2023-11-21T05:29:16;35.00;;;12.98;;
56537;SDS011;42435;53.292;6.000;2023-11-21T05:31:42;42.08;;;13.35;;
56537;SDS011;42435;53.292;6.000;2023-11-21T05:34:07;34.78;;;12.40;;
56537;SDS011;42435;53.292;6.000;2023-11-21T05:36:33;34.58;;;11.52;;
56537;SDS011;42435;53.292;6.000;2023-11-21T05:38:59;22.20;;;9.30;;
56537;SDS011;42435;53.292;6.000;2023-11-21T05:41:27;32.58;;;10.57;;
56537;SDS011;42435;53.292;6.000;2023-11-21T05:43:53;28.02;;;10.13;;
56537;SDS011;42435;53.292;6.000;2023-11-21T05:46:19;25.13;;;10.35;;
56537;SDS011;42435;53.292;6.000;2023-11-21T05:48:44;24.20;;;10.35;;
56537;SDS011;42435;53.292;6.000;2023-11-21T05:51:13;27.83;;;10.45;;
56537;SDS011;42435;53.292;6.000;2023-11-21T05:53:38;33.45;;;11.63;;
56537;SDS011;42435;53.292;6.000;2023-11-21T05:56:04;28.80;;;10.68;;
56537;SDS011;42435;53.292;6.000;2023-11-21T05:58:30;32.65;;;12.90;;
56537;SDS011;42435;53.292;6.000;2023-11-21T06:00:56;32.85;;;12.35;;
56537;SDS011;42435;53.292;6.000;2023-11-21T06:03:22;32.85;;;12.57;;
56537;SDS011;42435;53.292;6.000;2023-11-21T06:05:48;37.95;;;11.60;;
56537;SDS011;42435;53.292;6.000;2023-11-21T06:08:13;29.88;;;11.57;;
56537;SDS011;42435;53.292;6.000;2023-11-21T06:10:44;24.77;;;9.63;;
56537;SDS011;42435;53.292;6.000;2023-11-21T06:13:14;36.33;;;11.88;;
56537;SDS011;42435;53.292;6.000;2023-11-21T06:15:39;27.30;;;10.00;;
56537;SDS011;42435;53.292;6.000;2023-11-21T06:18:05;35.08;;;12.25;;
56537;SDS011;42435;53.292;6.000;2023-11-21T06:20:35;35.70;;;11.57;;
56537;SDS011;42435;53.292;6.000;2023-11-21T06:23:02;34.65;;;11.27;;
56537;SDS011;42435;53.292;6.000;2023-11-21T06:25:28;31.65;;;12.30;;
56537;SDS011;42435;53.292;6.000;2023-11-21T06:27:58;40.80;;;13.13;;
56537;SDS011;42435;53.292;6.000;2023-11-21T06:30:23;32.97;;;11.88;;
56537;SDS011;42435;53.292;6.000;2023-11-21T06:32:53;32.33;;;12.57;;
56537;SDS011;42435;53.292;6.000;2023-11-21T06:35:20;37.20;;;12.88;;
56537;SDS011;42435;53.292;6.000;2023-11-21T06:37:46;31.08;;;11.68;;
56537;SDS011;42435;53.292;6.000;2023-11-21T06:40:16;31.80;;;12.07;;
56537;SDS011;42435;53.292;6.000;2023-11-21T06:42:43;35.70;;;12.82;;
56537;SDS011;42435;53.292;6.000;2023-11-21T06:45:09;30.40;;;12.93;;
56537;SDS011;42435;53.292;6.000;2023-11-21T06:47:36;29.35;;;11.88;;
56537;SDS011;42435;53.292;6.000;2023-11-21T06:50:03;26.50;;;11.57;;
56537;SDS011;42435;53.292;6.000;2023-11-21T06:52:29;24.80;;;11.15;;
56537;SDS011;42435;53.292;6.000;2023-11-21T06:54:54;26.48;;;11.63;;
56537;SDS011;42435;53.292;6.000;2023-11-21T06:57:20;30.90;;;12.30;;
56537;SDS011;42435;53.292;6.000;2023-11-21T06:59:48;28.83;;;11.75;;
56537;SDS011;42435;53.292;6.000;2023-11-21T07:02:15;23.92;;;10.43;;
56537;SDS011;42435;53.292;6.000;2023-11-21T07:04:43;28.77;;;10.70;;
56537;SDS011;42435;53.292;6.000;2023-11-21T07:07:11;23.42;;;10.82;;
56537;SDS011;42435;53.292;6.000;2023-11-21T07:09:40;19.55;;;8.77;;
56537;SDS011;42435;53.292;6.000;2023-11-21T07:12:06;20.88;;;10.63;;
56537;SDS011;42435;53.292;6.000;2023-11-21T07:14:35;21.92;;;10.30;;
56537;SDS011;42435;53.292;6.000;2023-11-21T07:17:02;23.45;;;10.55;;
56537;SDS011;42435;53.292;6.000;2023-11-21T07:19:28;22.13;;;10.77;;
56537;SDS011;42435;53.292;6.000;2023-11-21T07:21:54;27.35;;;11.60;;
56537;SDS011;42435;53.292;6.000;2023-11-21T07:24:20;24.90;;;11.57;;
56537;SDS011;42435;53.292;6.000;2023-11-21T07:26:47;20.92;;;10.10;;
56537;SDS011;42435;53.292;6.000;2023-11-21T07:29:13;24.85;;;11.95;;
56537;SDS011;42435;53.292;6.000;2023-11-21T07:31:39;19.45;;;8.80;;
56537;SDS011;42435;53.292;6.000;2023-11-21T07:34:06;24.08;;;10.18;;
56537;SDS011;42435;53.292;6.000;2023-11-21T07:36:33;21.33;;;10.07;;
56537;SDS011;42435;53.292;6.000;2023-11-21T07:38:59;19.42;;;8.88;;
56537;SDS011;42435;53.292;6.000;2023-11-21T07:41:25;20.90;;;9.07;;
56537;SDS011;42435;53.292;6.000;2023-11-21T07:43:50;20.55;;;9.68;;
56537;SDS011;42435;53.292;6.000;2023-11-21T07:46:16;20.15;;;8.93;;
56537;SDS011;42435;53.292;6.000;2023-11-21T07:48:43;19.83;;;9.35;;
56537;SDS011;42435;53.292;6.000;2023-11-21T07:51:09;19.77;;;8.65;;
56537;SDS011;42435;53.292;6.000;2023-11-21T07:53:35;19.80;;;10.15;;
56537;SDS011;42435;53.292;6.000;2023-11-21T07:56:06;23.08;;;9.60;;
56537;SDS011;42435;53.292;6.000;2023-11-21T07:58:34;23.33;;;9.82;;
56537;SDS011;42435;53.292;6.000;2023-11-21T08:01:00;21.15;;;9.25;;
56537;SDS011;42435;53.292;6.000;2023-11-21T08:03:26;19.10;;;8.43;;
56537;SDS011;42435;53.292;6.000;2023-11-21T08:06:00;16.88;;;9.07;;
56537;SDS011;42435;53.292;6.000;2023-11-21T08:08:30;19.55;;;8.80;;
56537;SDS011;42435;53.292;6.000;2023-11-21T08:10:57;19.73;;;9.02;;
56537;SDS011;42435;53.292;6.000;2023-11-21T08:13:26;17.25;;;7.95;;
56537;SDS011;42435;53.292;6.000;2023-11-21T08:15:57;19.25;;;8.85;;
56537;SDS011;42435;53.292;6.000;2023-11-21T08:18:30;18.20;;;9.30;;
56537;SDS011;42435;53.292;6.000;2023-11-21T08:20:59;17.98;;;9.02;;
56537;SDS011;42435;53.292;6.000;2023-11-21T08:23:25;14.48;;;7.75;;
56537;SDS011;42435;53.292;6.000;2023-11-21T08:25:51;16.88;;;8.70;;
56537;SDS011;42435;53.292;6.000;2023-11-21T08:28:17;13.63;;;7.15;;
56537;SDS011;42435;53.292;6.000;2023-11-21T08:30:44;11.75;;;5.50;;
56537;SDS011;42435;53.292;6.000;2023-11-21T08:33:10;13.15;;;6.78;;
56537;SDS011;42435;53.292;6.000;2023-11-21T08:35:38;13.55;;;7.38;;
56537;SDS011;42435;53.292;6.000;2023-11-21T08:38:07;10.68;;;6.53;;
56537;SDS011;42435;53.292;6.000;2023-11-21T08:40:35;11.45;;;6.20;;
56537;SDS011;42435;53.292;6.000;2023-11-21T08:43:00;12.00;;;6.53;;
56537;SDS011;42435;53.292;6.000;2023-11-21T08:45:26;14.82;;;7.72;;
56537;SDS011;42435;53.292;6.000;2023-11-21T08:47:51;14.52;;;6.68;;
56537;SDS011;42435;53.292;6.000;2023-11-21T08:50:17;12.20;;;7.72;;
56537;SDS011;42435;53.292;6.000;2023-11-21T08:52:47;14.85;;;8.73;;
56537;SDS011;42435;53.292;6.000;2023-11-21T08:55:13;16.90;;;9.20;;
56537;SDS011;42435;53.292;6.000;2023-11-21T08:57:39;16.33;;;8.35;;
56537;SDS011;42435;53.292;6.000;2023-11-21T09:00:07;18.55;;;9.45;;
56537;SDS011;42435;53.292;6.000;2023-11-21T09:02:40;16.55;;;9.02;;
56537;SDS011;42435;53.292;6.000;2023-11-21T09:05:07;18.65;;;9.85;;
56537;SDS011;42435;53.292;6.000;2023-11-21T09:07:34;20.65;;;11.73;;
56537;SDS011;42435;53.292;6.000;2023-11-21T09:10:03;25.60;;;12.50;;
56537;SDS011;42435;53.292;6.000;2023-11-21T09:12:35;21.75;;;13.10;;
56537;SDS011;42435;53.292;6.000;2023-11-21T09:15:08;25.08;;;12.93;;
56537;SDS011;42435;53.292;6.000;2023-11-21T09:17:34;24.00;;;13.20;;
56537;SDS011;42435;53.292;6.000;2023-11-21T09:20:00;19.67;;;11.80;;
56537;SDS011;42435;53.292;6.000;2023-11-21T09:22:28;22.30;;;12.32;;
56537;SDS011;42435;53.292;6.000;2023-11-21T09:24:54;17.33;;;10.63;;
56537;SDS011;42435;53.292;6.000;2023-11-21T09:27:21;17.23;;;9.77;;
56537;SDS011;42435;53.292;6.000;2023-11-21T09:29:47;17.23;;;8.98;;
56537;SDS011;42435;53.292;6.000;2023-11-21T09:32:12;15.80;;;8.63;;
56537;SDS011;42435;53.292;6.000;2023-11-21T09:34:40;12.90;;;8.05;;
56537;SDS011;42435;53.292;6.000;2023-11-21T09:37:06;14.60;;;8.73;;
56537;SDS011;42435;53.292;6.000;2023-11-21T09:39:33;13.63;;;8.73;;
56537;SDS011;42435;53.292;6.000;2023-11-21T09:42:08;14.63;;;8.55;;
56537;SDS011;42435;53.292;6.000;2023-11-21T09:44:51;13.30;;;7.47;;
56537;SDS011;42435;53.292;6.000;2023-11-21T09:47:26;12.63;;;8.18;;
56537;SDS011;42435;53.292;6.000;2023-11-21T09:49:52;16.63;;;8.15;;
56537;SDS011;42435;53.292;6.000;2023-11-21T09:52:25;15.25;;;8.52;;
56537;SDS011;42435;53.292;6.000;2023-11-21T09:54:54;15.70;;;8.32;;
56537;SDS011;42435;53.292;6.000;2023-11-21T09:57:23;14.27;;;8.20;;
56537;SDS011;42435;53.292;6.000;2023-11-21T09:59:53;16.73;;;10.20;;
56537;SDS011;42435;53.292;6.000;2023-11-21T10:02:26;13.90;;;8.27;;
56537;SDS011;42435;53.292;6.000;2023-11-21T10:04:56;15.13;;;8.25;;
56537;SDS011;42435;53.292;6.000;2023-11-21T10:07:21;14.02;;;9.20;;
56537;SDS011;42435;53.292;6.000;2023-11-21T10:09:48;14.23;;;8.82;;
56537;SDS011;42435;53.292;6.000;2023-11-21T10:12:15;14.77;;;8.20;;
56537;SDS011;42435;53.292;6.000;2023-11-21T10:14:42;14.00;;;7.93;;
56537;SDS011;42435;53.292;6.000;2023-11-21T10:17:10;14.05;;;8.80;;
56537;SDS011;42435;53.292;6.000;2023-11-21T10:19:37;12.02;;;7.07;;
56537;SDS011;42435;53.292;6.000;2023-11-21T10:22:05;11.93;;;7.38;;
56537;SDS011;42435;53.292;6.000;2023-11-21T10:24:32;13.68;;;8.50;;
56537;SDS011;42435;53.292;6.000;2023-11-21T10:26:58;11.93;;;7.40;;
56537;SDS011;42435;53.292;6.000;2023-11-21T10:29:24;10.68;;;6.88;;
56537;SDS011;42435;53.292;6.000;2023-11-21T10:31:54;11.65;;;7.40;;
56537;SDS011;42435;53.292;6.000;2023-11-21T10:34:22;11.82;;;7.43;;
56537;SDS011;42435;53.292;6.000;2023-11-21T10:36:48;12.45;;;7.82;;
56537;SDS011;42435;53.292;6.000;2023-11-21T10:39:19;15.02;;;7.80;;
56537;SDS011;42435;53.292;6.000;2023-11-21T10:41:46;14.55;;;8.13;;
56537;SDS011;42435;53.292;6.000;2023-11-21T10:44:15;13.77;;;7.72;;
56537;SDS011;42435;53.292;6.000;2023-11-21T10:46:50;12.57;;;7.80;;
56537;SDS011;42435;53.292;6.000;2023-11-21T10:49:21;13.75;;;8.23;;
56537;SDS011;42435;53.292;6.000;2023-11-21T10:51:52;12.68;;;7.25;;
56537;SDS011;42435;53.292;6.000;2023-11-21T10:54:19;14.32;;;7.78;;
56537;SDS011;42435;53.292;6.000;2023-11-21T10:56:46;16.02;;;8.35;;
56537;SDS011;42435;53.292;6.000;2023-11-21T10:59:16;14.18;;;7.07;;
56537;SDS011;42435;53.292;6.000;2023-11-21T11:01:42;13.43;;;7.75;;
56537;SDS011;42435;53.292;6.000;2023-11-21T11:04:11;11.80;;;7.38;;
56537;SDS011;42435;53.292;6.000;2023-11-21T11:06:43;10.82;;;6.53;;
56537;SDS011;42435;53.292;6.000;2023-11-21T11:09:10;12.52;;;6.97;;
56537;SDS011;42435;53.292;6.000;2023-11-21T11:11:40;11.60;;;6.15;;
56537;SDS011;42435;53.292;6.000;2023-11-21T11:14:07;9.07;;;5.97;;
56537;SDS011;42435;53.292;6.000;2023-11-21T11:16:36;11.82;;;7.15;;
56537;SDS011;42435;53.292;6.000;2023-11-21T11:19:09;10.68;;;6.45;;
56537;SDS011;42435;53.292;6.000;2023-11-21T11:28:03;8.18;;;5.15;;
56537;SDS011;42435;53.292;6.000;2023-11-21T11:30:16;11.13;;;5.20;;
56537;SDS011;42435;53.292;6.000;2023-11-21T11:33:18;10.77;;;5.55;;
56537;SDS011;42435;53.292;6.000;2023-11-21T11:36:03;8.45;;;5.45;;
56537;SDS011;42435;53.292;6.000;2023-11-21T11:41:27;7.75;;;4.90;;
56537;SDS011;42435;53.292;6.000;2023-11-21T11:43:57;5.90;;;4.78;;
56537;SDS011;42435;53.292;6.000;2023-11-21T11:46:43;6.05;;;4.53;;
56537;SDS011;42435;53.292;6.000;2023-11-21T11:49:28;5.93;;;3.72;;
56537;SDS011;42435;53.292;6.000;2023-11-21T11:54:57;6.63;;;4.07;;
56537;SDS011;42435;53.292;6.000;2023-11-21T11:57:25;5.38;;;4.03;;
56537;SDS011;42435;53.292;6.000;2023-11-21T12:02:46;6.30;;;3.88;;
56537;SDS011;42435;53.292;6.000;2023-11-21T12:05:22;7.25;;;4.30;;
56537;SDS011;42435;53.292;6.000;2023-11-21T12:07:55;5.82;;;4.10;;
56537;SDS011;42435;53.292;6.000;2023-11-21T12:10:26;5.60;;;3.95;;
56537;SDS011;42435;53.292;6.000;2023-11-21T12:12:54;5.38;;;3.50;;
56537;SDS011;42435;53.292;6.000;2023-11-21T12:15:21;5.93;;;4.10;;
56537;SDS011;42435;53.292;6.000;2023-11-21T12:17:48;6.53;;;3.90;;
56537;SDS011;42435;53.292;6.000;2023-11-21T12:20:15;6.13;;;4.30;;
56537;SDS011;42435;53.292;6.000;2023-11-21T12:22:52;8.35;;;5.05;;
56537;SDS011;42435;53.292;6.000;2023-11-21T12:25:23;7.32;;;4.63;;
56537;SDS011;42435;53.292;6.000;2023-11-21T12:27:57;8.02;;;5.35;;
56537;SDS011;42435;53.292;6.000;2023-11-21T12:30:28;8.52;;;5.82;;
56537;SDS011;42435;53.292;6.000;2023-11-21T12:32:57;7.40;;;5.20;;
56537;SDS011;42435;53.292;6.000;2023-11-21T12:35:27;9.98;;;5.35;;
56537;SDS011;42435;53.292;6.000;2023-11-21T12:37:59;8.68;;;5.57;;
56537;SDS011;42435;53.292;6.000;2023-11-21T12:40:25;9.63;;;6.15;;
56537;SDS011;42435;53.292;6.000;2023-11-21T12:42:52;7.45;;;5.53;;
56537;SDS011;42435;53.292;6.000;2023-11-21T12:45:26;9.05;;;5.88;;
56537;SDS011;42435;53.292;6.000;2023-11-21T12:50:32;11.65;;;6.88;;
56537;SDS011;42435;53.292;6.000;2023-11-21T12:53:02;9.95;;;6.65;;
56537;SDS011;42435;53.292;6.000;2023-11-21T12:55:33;11.45;;;6.45;;
56537;SDS011;42435;53.292;6.000;2023-11-21T12:58:02;10.60;;;6.15;;
56537;SDS011;42435;53.292;6.000;2023-11-21T13:00:35;9.75;;;6.45;;
56537;SDS011;42435;53.292;6.000;2023-11-21T13:03:03;10.68;;;6.68;;
56537;SDS011;42435;53.292;6.000;2023-11-21T13:05:30;11.52;;;7.15;;
56537;SDS011;42435;53.292;6.000;2023-11-21T13:08:02;12.60;;;6.45;;
56537;SDS011;42435;53.292;6.000;2023-11-21T13:10:31;8.98;;;6.32;;
56537;SDS011;42435;53.292;6.000;2023-11-21T13:13:01;9.48;;;6.05;;
56537;SDS011;42435;53.292;6.000;2023-11-21T13:15:30;9.93;;;5.72;;
56537;SDS011;42435;53.292;6.000;2023-11-21T13:17:58;9.45;;;6.07;;
56537;SDS011;42435;53.292;6.000;2023-11-21T13:20:27;8.68;;;5.60;;
56537;SDS011;42435;53.292;6.000;2023-11-21T13:22:55;10.65;;;5.78;;
56537;SDS011;42435;53.292;6.000;2023-11-21T13:25:26;9.85;;;5.55;;
56537;SDS011;42435;53.292;6.000;2023-11-21T13:27:55;10.65;;;6.20;;
56537;SDS011;42435;53.292;6.000;2023-11-21T13:30:22;8.00;;;5.20;;
56537;SDS011;42435;53.292;6.000;2023-11-21T13:32:51;9.55;;;6.43;;
56537;SDS011;42435;53.292;6.000;2023-11-21T13:35:18;10.02;;;5.75;;
56537;SDS011;42435;53.292;6.000;2023-11-21T13:37:49;8.95;;;5.13;;
56537;SDS011;42435;53.292;6.000;2023-11-21T13:40:21;7.75;;;5.13;;
56537;SDS011;42435;53.292;6.000;2023-11-21T13:42:54;7.47;;;4.85;;
56537;SDS011;42435;53.292;6.000;2023-11-21T13:45:22;9.25;;;4.60;;
56537;SDS011;42435;53.292;6.000;2023-11-21T13:47:51;12.20;;;5.28;;
56537;SDS011;42435;53.292;6.000;2023-11-21T13:50:21;7.30;;;4.95;;
56537;SDS011;42435;53.292;6.000;2023-11-21T13:52:57;7.68;;;5.28;;
56537;SDS011;42435;53.292;6.000;2023-11-21T13:55:29;9.05;;;4.90;;
56537;SDS011;42435;53.292;6.000;2023-11-21T13:57:54;8.07;;;4.43;;
56537;SDS011;42435;53.292;6.000;2023-11-21T14:00:20;7.90;;;4.55;;
56537;SDS011;42435;53.292;6.000;2023-11-21T14:03:08;9.65;;;5.28;;
56537;SDS011;42435;53.292;6.000;2023-11-21T14:05:45;9.05;;;5.13;;
56537;SDS011;42435;53.292;6.000;2023-11-21T14:08:18;7.57;;;4.75;;
56537;SDS011;42435;53.292;6.000;2023-11-21T14:10:46;7.00;;;4.53;;
56537;SDS011;42435;53.292;6.000;2023-11-21T14:13:22;6.15;;;3.45;;
56537;SDS011;42435;53.292;6.000;2023-11-21T14:15:52;7.90;;;4.10;;
56537;SDS011;42435;53.292;6.000;2023-11-21T14:18:27;7.75;;;3.85;;
56537;SDS011;42435;53.292;6.000;2023-11-21T14:21:01;7.45;;;4.07;;
56537;SDS011;42435;53.292;6.000;2023-11-21T14:23:26;7.50;;;3.70;;
56537;SDS011;42435;53.292;6.000;2023-11-21T14:25:53;4.30;;;3.15;;
56537;SDS011;42435;53.292;6.000;2023-11-21T14:28:22;4.18;;;3.05;;
56537;SDS011;42435;53.292;6.000;2023-11-21T14:30:48;6.28;;;5.13;;
56537;SDS011;42435;53.292;6.000;2023-11-21T14:33:15;9.07;;;3.65;;
56537;SDS011;42435;53.292;6.000;2023-11-21T14:35:41;9.05;;;4.50;;
56537;SDS011;42435;53.292;6.000;2023-11-21T14:38:08;7.50;;;5.53;;
56537;SDS011;42435;53.292;6.000;2023-11-21T14:40:35;8.52;;;5.13;;
56537;SDS011;42435;53.292;6.000;2023-11-21T14:43:01;5.55;;;4.82;;
56537;SDS011;42435;53.292;6.000;2023-11-21T14:45:30;5.10;;;3.33;;
56537;SDS011;42435;53.292;6.000;2023-11-21T14:48:00;8.82;;;3.28;;
56537;SDS011;42435;53.292;6.000;2023-11-21T14:50:33;6.45;;;3.03;;
56537;SDS011;42435;53.292;6.000;2023-11-21T14:53:18;6.13;;;3.67;;
56537;SDS011;42435;53.292;6.000;2023-11-21T14:56:07;13.40;;;3.97;;
56537;SDS011;42435;53.292;6.000;2023-11-21T14:58:34;5.47;;;3.13;;